Time;durP1;ratioP1;P1;durP2;ratioP2;P2;SDS_P1;SDS_P2;PMS_P1;PMS_P2;Temp;Humidity;BMP_temperature;BMP_pressure;BME280_temperature;BME280_humidity;BME280_pressure;Samples;Min_cycle;Max_cycle;Signal;HPM_P1;HPM_P2
2022/07/02 00:00:27;;;;;;;4.07;1.52;;;;;;;15.71;86.65;100390.06;12180750;19;20062;-80
2022/07/02 00:04:33;;;;;;;4.75;1.60;;;;;;;15.65;87.40;100402.22;12204154;19;20014;-79
2022/07/02 00:08:34;;;;;;;5.97;1.67;;;;;;;15.62;87.53;100401.94;12200890;19;20078;-79
2022/07/02 00:12:36;;;;;;;2.38;1.20;;;;;;;15.56;87.82;100395.50;12185831;19;20088;-80
2022/07/02 00:16:38;;;;;;;3.80;1.58;;;;;;;15.53;87.72;100398.81;12198039;19;20678;-79
2022/07/02 00:20:42;;;;;;;2.33;1.35;;;;;;;15.49;88.67;100400.44;12194880;19;20015;-79
2022/07/02 00:24:44;;;;;;;2.85;1.38;;;;;;;15.46;88.84;100401.81;12181484;19;20024;-79
2022/07/02 00:28:53;;;;;;;3.03;1.30;;;;;;;15.45;88.32;100407.66;12199700;19;20018;-80
2022/07/02 00:32:54;;;;;;;6.53;1.42;;;;;;;15.41;88.01;100399.03;12184984;19;20006;-78
2022/07/02 00:36:57;;;;;;;5.07;1.98;;;;;;;15.36;89.13;100401.75;12202234;19;20014;-79
2022/07/02 00:41:02;;;;;;;6.60;1.80;;;;;;;15.33;89.47;100407.84;12199004;19;20748;-79
2022/07/02 00:45:05;;;;;;;4.47;1.55;;;;;;;15.32;88.92;100399.78;12188414;19;20451;-79
2022/07/02 00:49:08;;;;;;;5.57;1.77;;;;;;;15.32;88.75;100397.00;12214899;19;20166;-80
2022/07/02 00:53:10;;;;;;;3.40;1.42;;;;;;;15.30;89.09;100404.78;12209219;19;20767;-80
2022/07/02 00:57:11;;;;;;;5.32;1.90;;;;;;;15.29;89.17;100409.50;12183976;19;20018;-78
2022/07/02 01:01:13;;;;;;;2.70;1.40;;;;;;;15.27;89.77;100406.13;12201604;19;20045;-78
2022/07/02 01:05:19;;;;;;;3.03;1.42;;;;;;;15.26;90.37;100404.47;12206568;19;20033;-80
2022/07/02 01:13:42;;;;;;;2.05;1.50;;;;;;;15.22;91.06;100401.38;12210638;19;20094;-79
2022/07/02 01:17:43;;;;;;;3.15;1.60;;;;;;;15.20;91.61;100398.06;12209844;19;20007;-80
2022/07/02 01:22:11;;;;;;;3.08;1.17;;;;;;;15.20;92.16;100397.19;12192360;19;20027;-80
2022/07/02 01:26:12;;;;;;;2.53;1.80;;;;;;;15.13;91.61;100389.09;12210703;19;20039;-79
2022/07/02 01:30:14;;;;;;;6.40;1.70;;;;;;;15.03;91.45;100394.56;12191543;19;20015;-78
2022/07/02 01:34:16;;;;;;;6.95;1.75;;;;;;;14.96;92.47;100391.16;12208758;19;20011;-80
2022/07/02 01:38:17;;;;;;;4.90;1.67;;;;;;;14.94;93.24;100398.94;12207122;19;20736;-78
2022/07/02 01:42:19;;;;;;;2.67;1.70;;;;;;;14.89;93.68;100390.56;12190206;19;20095;-79
2022/07/02 01:46:21;;;;;;;4.93;1.83;;;;;;;14.84;93.82;100396.06;12209196;19;20023;-79
2022/07/02 01:50:23;;;;;;;2.63;1.58;;;;;;;14.76;93.68;100397.41;12211717;19;20002;-81
2022/07/02 01:54:26;;;;;;;2.60;1.50;;;;;;;14.68;94.13;100403.41;12190559;19;20356;-78
2022/07/02 01:58:28;;;;;;;5.47;1.70;;;;;;;14.61;94.61;100400.88;12207671;19;20024;-79
2022/07/02 02:02:30;;;;;;;6.32;1.60;;;;;;;14.56;94.98;100407.19;12201632;19;20023;-80
2022/07/02 02:06:31;;;;;;;2.05;1.40;;;;;;;14.52;95.14;100411.59;12178455;19;20369;-80
2022/07/02 02:10:33;;;;;;;3.05;1.42;;;;;;;14.52;95.63;100407.97;12200493;19;20019;-79
2022/07/02 02:14:35;;;;;;;6.22;2.38;;;;;;;14.47;95.97;100407.88;12206052;19;20077;-79
2022/07/02 02:18:37;;;;;;;5.07;1.77;;;;;;;14.44;96.50;100409.25;12188796;19;20007;-80
2022/07/02 02:22:39;;;;;;;4.60;2.30;;;;;;;14.40;96.82;100413.66;12214762;19;20011;-78
2022/07/02 02:26:41;;;;;;;3.45;1.98;;;;;;;14.35;97.76;100410.81;12210161;19;20018;-78
2022/07/02 02:30:42;;;;;;;5.20;2.03;;;;;;;14.32;99.02;100403.00;12193396;19;20028;-80
2022/07/02 02:34:44;;;;;;;3.65;1.98;;;;;;;14.28;99.24;100408.25;12204764;19;20447;-79
2022/07/02 02:38:46;;;;;;;3.50;1.92;;;;;;;14.25;99.99;100405.16;12195068;19;20101;-79
2022/07/02 02:42:48;;;;;;;3.50;1.83;;;;;;;14.20;100.00;100397.63;12185046;19;20734;-79
2022/07/02 02:46:50;;;;;;;9.37;2.40;;;;;;;14.17;100.00;100400.06;12212310;19;20018;-78
2022/07/02 02:50:52;;;;;;;2.63;1.70;;;;;;;14.13;100.00;100413.63;12197870;19;20006;-78
2022/07/02 02:54:54;;;;;;;3.00;1.92;;;;;;;14.09;100.00;100410.50;12203532;19;20002;-77
2022/07/02 02:58:55;;;;;;;8.95;2.53;;;;;;;14.06;100.00;100411.03;12199256;19;20667;-78
2022/07/02 03:02:57;;;;;;;4.43;2.30;;;;;;;14.03;100.00;100414.31;12190021;19;20010;-77
2022/07/02 03:06:59;;;;;;;3.67;2.10;;;;;;;14.02;100.00;100418.19;12207716;19;20011;-79
2022/07/02 03:11:01;;;;;;;6.80;2.27;;;;;;;13.97;100.00;100412.56;12200195;19;20007;-78
2022/07/02 03:15:03;;;;;;;4.47;2.35;;;;;;;13.94;100.00;100426.09;12181238;19;20031;-79
2022/07/02 03:19:04;;;;;;;4.32;2.08;;;;;;;13.90;100.00;100426.63;12200223;19;20014;-79
2022/07/02 03:23:06;;;;;;;3.85;2.25;;;;;;;13.86;100.00;100425.47;12209229;19;20027;-78
2022/07/02 03:27:08;;;;;;;3.80;1.98;;;;;;;13.81;100.00;100432.88;12186949;19;20014;-79
2022/07/02 03:31:10;;;;;;;4.60;2.13;;;;;;;13.71;100.00;100432.72;12196490;19;20120;-79
2022/07/02 03:35:11;;;;;;;4.40;1.95;;;;;;;13.67;100.00;100440.69;12204515;19;20006;-78
2022/07/02 03:39:13;;;;;;;7.85;2.50;;;;;;;13.70;100.00;100444.91;12176078;19;20035;-81
2022/07/02 03:43:15;;;;;;;6.28;2.17;;;;;;;13.73;100.00;100447.16;12187679;19;20018;-79
2022/07/02 03:47:16;;;;;;;4.95;2.30;;;;;;;13.77;100.00;100454.72;12190878;19;20031;-78
2022/07/02 03:51:18;;;;;;;4.05;2.08;;;;;;;13.80;100.00;100453.34;12169835;19;20011;-80
2022/07/02 03:55:20;;;;;;;4.57;1.98;;;;;;;13.77;100.00;100449.19;12189285;19;20007;-79
2022/07/02 03:59:22;;;;;;;4.70;2.10;;;;;;;13.73;100.00;100461.00;12195290;19;20031;-79
2022/07/02 04:03:24;;;;;;;5.72;2.45;;;;;;;13.73;100.00;100459.06;12175745;19;20011;-79
2022/07/02 04:07:25;;;;;;;3.42;2.15;;;;;;;13.77;100.00;100457.47;12197684;19;20440;-80
2022/07/02 04:11:27;;;;;;;5.65;2.58;;;;;;;13.81;100.00;100464.19;12200665;19;20031;-78
2022/07/02 04:15:29;;;;;;;6.30;2.70;;;;;;;13.84;100.00;100462.84;12174774;19;20023;-78
2022/07/02 04:19:31;;;;;;;4.47;2.35;;;;;;;13.86;100.00;100463.41;12213292;19;20018;-79
2022/07/02 04:23:33;;;;;;;5.95;2.15;;;;;;;13.87;100.00;100471.47;12215520;19;20572;-78
2022/07/02 04:27:34;;;;;;;4.32;2.45;;;;;;;13.89;100.00;100460.09;12187929;19;20007;-79
2022/07/02 04:31:36;;;;;;;4.63;2.38;;;;;;;13.94;100.00;100454.66;12215665;19;20014;-78
2022/07/02 04:35:38;;;;;;;5.75;2.20;;;;;;;13.99;100.00;100460.25;12209589;19;20110;-79
2022/07/02 04:39:39;;;;;;;4.05;2.13;;;;;;;14.03;100.00;100464.19;12189999;19;20059;-79
2022/07/02 04:43:41;;;;;;;6.97;2.70;;;;;;;14.08;100.00;100455.94;12208442;19;20003;-78
2022/07/02 04:47:43;;;;;;;3.63;2.50;;;;;;;14.13;100.00;100456.03;12205431;19;20010;-79
2022/07/02 04:51:44;;;;;;;7.22;2.97;;;;;;;14.18;100.00;100465.47;12177064;19;20006;-79
2022/07/02 04:55:46;;;;;;;5.47;2.58;;;;;;;14.20;100.00;100463.31;12214487;19;20027;-79
2022/07/02 04:59:48;;;;;;;5.53;2.80;;;;;;;14.22;100.00;100453.63;12209570;19;20372;-79
2022/07/02 05:03:52;;;;;;;5.35;2.40;;;;;;;14.28;100.00;100462.84;12182833;19;20011;-79
2022/07/02 05:07:54;;;;;;;3.80;2.40;;;;;;;14.31;100.00;100470.66;12209351;19;20824;-79
2022/07/02 05:11:56;;;;;;;4.28;2.67;;;;;;;14.36;100.00;100468.75;12197226;19;20023;-80
2022/07/02 05:15:57;;;;;;;3.25;2.03;;;;;;;14.44;100.00;100467.47;12205695;19;20465;-80
2022/07/02 05:19:59;;;;;;;9.27;2.67;;;;;;;14.49;100.00;100458.38;12207357;19;20010;-79
2022/07/02 05:24:01;;;;;;;5.13;1.90;;;;;;;14.54;100.00;100461.22;12193022;19;20007;-80
2022/07/02 05:28:03;;;;;;;4.75;2.42;;;;;;;14.61;100.00;100478.53;12203909;19;20023;-80
2022/07/02 05:32:05;;;;;;;5.72;2.17;;;;;;;14.67;100.00;100479.41;12212337;19;20010;-79
2022/07/02 05:36:06;;;;;;;3.73;2.03;;;;;;;14.73;100.00;100473.66;12192238;19;20027;-80
2022/07/02 05:40:09;;;;;;;6.38;2.17;;;;;;;14.82;100.00;100479.56;12209965;19;20070;-79
2022/07/02 05:44:10;;;;;;;3.53;2.50;;;;;;;14.90;100.00;100476.34;12208308;19;20042;-79
2022/07/02 05:48:12;;;;;;;3.92;2.08;;;;;;;15.02;100.00;100476.16;12186304;19;20016;-78
2022/07/02 05:52:17;;;;;;;4.53;2.42;;;;;;;15.13;100.00;100477.91;12212944;19;20019;-80
2022/07/02 05:56:19;;;;;;;2.95;1.90;;;;;;;15.27;100.00;100481.09;12201496;19;20031;-78
2022/07/02 06:00:20;;;;;;;4.70;2.08;;;;;;;15.37;100.00;100477.56;12180215;19;20010;-78
2022/07/02 06:04:22;;;;;;;4.20;2.00;;;;;;;15.48;100.00;100484.88;12207479;19;20108;-80
2022/07/02 06:08:24;;;;;;;5.80;2.25;;;;;;;15.61;100.00;100480.81;12198017;19;20011;-79
2022/07/02 06:12:25;;;;;;;4.53;2.53;;;;;;;15.77;99.45;100485.41;12184678;19;20024;-79
2022/07/02 06:16:29;;;;;;;5.80;2.30;;;;;;;15.98;97.80;100475.25;12205114;19;20070;-79
2022/07/02 06:20:31;;;;;;;5.03;2.72;;;;;;;16.21;96.04;100478.69;12208780;19;20015;-79
2022/07/02 06:24:33;;;;;;;5.55;2.53;;;;;;;16.43;94.35;100487.69;12182219;19;20074;-81
2022/07/02 06:28:34;;;;;;;4.45;2.10;;;;;;;16.66;92.61;100491.94;12206924;19;20035;-80
2022/07/02 06:32:36;;;;;;;5.45;2.45;;;;;;;16.83;92.07;100483.38;12211608;19;20019;-80
2022/07/02 06:36:38;;;;;;;5.10;2.13;;;;;;;17.02;90.51;100494.84;12179884;19;20049;-78
2022/07/02 06:40:39;;;;;;;6.63;2.88;;;;;;;17.21;89.73;100493.19;12206892;19;20155;-80
2022/07/02 06:44:41;;;;;;;7.32;3.08;;;;;;;17.42;87.71;100498.75;12203245;19;20098;-81
2022/07/02 06:48:43;;;;;;;6.20;2.55;;;;;;;17.70;86.29;100492.63;12184677;19;20010;-81
2022/07/02 06:52:45;;;;;;;6.22;2.45;;;;;;;17.99;84.95;100492.88;12210698;19;20393;-81
2022/07/02 06:56:47;;;;;;;5.03;2.20;;;;;;;18.29;83.64;100493.88;12202105;19;20010;-78
2022/07/02 07:00:49;;;;;;;7.88;2.20;;;;;;;18.56;82.56;100493.50;12162203;19;20011;-78
2022/07/02 07:04:50;;;;;;;6.47;2.55;;;;;;;18.79;81.20;100488.38;12194530;19;20021;-79
2022/07/02 07:08:53;;;;;;;5.13;2.22;;;;;;;19.04;80.02;100502.19;12202176;19;20022;-78
2022/07/02 07:12:55;;;;;;;4.78;1.60;;;;;;;19.24;78.83;100495.59;12183898;19;20010;-80
2022/07/02 07:16:57;;;;;;;5.32;1.88;;;;;;;19.44;77.77;100486.22;12200566;19;20588;-79
2022/07/02 07:20:58;;;;;;;4.17;1.87;;;;;;;19.71;76.24;100490.50;12179240;19;20337;-79
2022/07/02 07:25:00;;;;;;;6.18;2.60;;;;;;;20.01;75.56;100489.34;12196697;19;20032;-77
2022/07/02 07:29:02;;;;;;;4.15;2.08;;;;;;;20.33;74.35;100488.69;12181329;19;20021;-77
2022/07/02 07:33:05;;;;;;;3.00;1.70;;;;;;;20.62;72.74;100487.81;12179450;19;20508;-78
2022/07/02 07:37:06;;;;;;;4.60;2.00;;;;;;;20.84;71.46;100482.44;12189872;19;20462;-77
2022/07/02 07:41:08;;;;;;;5.35;1.98;;;;;;;21.15;70.17;100476.41;12193016;19;20070;-79
2022/07/02 07:45:10;;;;;;;4.88;2.20;;;;;;;21.32;68.39;100476.66;12176908;19;20078;-79
2022/07/02 07:49:12;;;;;;;2.97;1.70;;;;;;;21.52;67.42;100474.69;12198093;19;20086;-79
2022/07/02 07:53:13;;;;;;;4.28;1.95;;;;;;;21.75;66.55;100473.72;12215755;19;20368;-79
2022/07/02 07:57:15;;;;;;;3.72;1.70;;;;;;;21.98;65.73;100469.09;12185406;19;20029;-79
2022/07/02 08:01:19;;;;;;;4.75;1.92;;;;;;;22.26;64.18;100460.69;12207322;19;20009;-79
2022/07/02 08:05:21;;;;;;;5.20;2.03;;;;;;;22.39;63.02;100453.41;12208488;19;20018;-80
2022/07/02 08:09:22;;;;;;;3.80;1.50;;;;;;;22.58;62.59;100456.94;12187986;19;20027;-80
2022/07/02 08:13:27;;;;;;;2.97;1.40;;;;;;;22.69;58.70;100452.72;12212808;19;20018;-78
2022/07/02 08:17:29;;;;;;;8.27;4.05;;;;;;;22.81;59.26;100443.75;12206438;19;20109;-78
2022/07/02 08:21:31;;;;;;;3.70;1.48;;;;;;;23.04;57.92;100446.63;12189743;19;20018;-79
2022/07/02 08:25:32;;;;;;;2.30;1.37;;;;;;;23.26;56.92;100442.97;12212306;19;20376;-79
2022/07/02 08:29:34;;;;;;;6.15;1.48;;;;;;;23.44;54.65;100439.16;12211310;19;20074;-80
2022/07/02 08:33:36;;;;;;;5.40;1.23;;;;;;;23.61;54.16;100438.41;12192190;19;20508;-80
2022/07/02 08:37:37;;;;;;;4.27;1.17;;;;;;;23.69;53.24;100439.63;12214060;19;20010;-79
2022/07/02 08:41:43;;;;;;;1.73;0.90;;;;;;;23.84;50.18;100437.25;12197047;19;20010;-78
2022/07/02 08:45:44;;;;;;;4.35;1.15;;;;;;;23.82;49.25;100438.72;12187097;19;20097;-79
2022/07/02 08:49:47;;;;;;;3.43;1.30;;;;;;;24.05;48.21;100423.44;12208118;19;20011;-79
2022/07/02 08:53:48;;;;;;;2.65;0.95;;;;;;;24.56;48.62;100419.13;12216517;19;20018;-79
2022/07/02 08:57:51;;;;;;;3.77;1.00;;;;;;;24.84;48.29;100432.06;12183989;19;20078;-80
2022/07/02 09:01:53;;;;;;;4.75;1.00;;;;;;;25.31;47.68;100427.44;12205543;19;20007;-79
2022/07/02 09:05:55;;;;;;;2.25;1.10;;;;;;;25.58;45.53;100429.06;12194255;19;19998;-79
2022/07/02 09:09:57;;;;;;;0.68;0.68;;;;;;;25.28;45.00;100416.00;12214318;19;20007;-79
2022/07/02 09:14:00;;;;;;;2.40;1.10;;;;;;;24.84;46.16;100418.84;12203292;19;20015;-79
2022/07/02 09:18:02;;;;;;;2.45;1.02;;;;;;;24.70;46.15;100423.78;12183815;19;20098;-79
2022/07/02 09:22:07;;;;;;;1.03;0.70;;;;;;;24.56;45.21;100407.84;12210303;19;20010;-79
2022/07/02 09:26:17;;;;;;;4.40;1.05;;;;;;;24.85;44.92;100414.03;12212444;19;20028;-80
2022/07/02 09:30:19;;;;;;;2.35;1.33;;;;;;;25.44;44.50;100401.03;12193436;19;20022;-80
2022/07/02 09:34:28;;;;;;;2.75;1.02;;;;;;;25.51;44.55;100399.69;12201214;19;20015;-79
2022/07/02 09:38:29;;;;;;;4.33;0.80;;;;;;;25.24;45.69;100396.94;12209926;19;20014;-79
2022/07/02 09:42:33;;;;;;;2.80;0.90;;;;;;;25.36;42.97;100384.97;12173826;19;20027;-80
2022/07/02 09:46:35;;;;;;;1.63;0.90;;;;;;;25.96;41.25;100371.00;12208068;19;20006;-83
2022/07/02 09:50:39;;;;;;;1.60;0.90;;;;;;;26.48;39.27;100365.88;12212712;19;20086;-79
2022/07/02 09:54:42;;;;;;;2.67;0.93;;;;;;;26.59;37.97;100357.81;12185344;19;20006;-80
2022/07/02 09:58:44;;;;;;;5.55;0.80;;;;;;;26.53;39.49;100359.19;12214408;19;20384;-79
2022/07/02 10:02:53;;;;;;;0.73;0.57;;;;;;;26.57;37.70;100371.47;12213903;19;20475;-82
2022/07/02 10:06:56;;;;;;;0.85;0.77;;;;;;;26.94;38.08;100360.34;12194247;19;20234;-81
2022/07/02 10:10:57;;;;;;;2.38;0.75;;;;;;;26.93;35.21;100351.03;12215634;19;20018;-81
2022/07/02 10:15:04;;;;;;;3.08;0.90;;;;;;;27.33;36.71;100356.16;12191975;19;20467;-82
2022/07/02 10:19:07;;;;;;;2.55;0.95;;;;;;;27.89;35.98;100347.19;12212723;19;20366;-82
2022/07/02 10:23:14;;;;;;;2.22;0.73;;;;;;;28.18;36.33;100340.44;12219725;19;20077;-84
2022/07/02 10:27:20;;;;;;;1.92;0.60;;;;;;;28.31;36.10;100336.41;12197714;19;20511;-82
2022/07/02 10:31:22;;;;;;;5.13;0.90;;;;;;;28.22;35.35;100329.22;12214737;19;20070;-83
2022/07/02 10:35:24;;;;;;;2.97;0.90;;;;;;;28.30;35.37;100316.94;12212199;19;20011;-82
2022/07/02 10:39:36;;;;;;;2.08;0.93;;;;;;;28.20;36.49;100329.59;12174545;19;20016;-83
2022/07/02 10:43:39;;;;;;;2.63;0.90;;;;;;;28.64;35.35;100315.56;12204038;19;20014;-84
2022/07/02 10:48:02;;;;;;;1.50;0.70;;;;;;;29.05;33.24;100319.19;12211538;19;20033;-84
2022/07/02 10:52:04;;;;;;;2.13;1.20;;;;;;;29.27;33.33;100309.25;12182863;19;20010;-82
2022/07/02 10:56:06;;;;;;;1.65;0.80;;;;;;;29.19;33.34;100305.41;12202955;19;20070;-82
2022/07/02 11:00:26;;;;;;;2.22;0.80;;;;;;;29.11;32.25;100299.91;12178313;19;20015;-82
2022/07/02 11:04:28;;;;;;;0.60;0.60;;;;;;;29.25;32.18;100297.47;12212029;19;20017;-83
2022/07/02 11:08:46;;;;;;;2.05;0.60;;;;;;;29.25;32.16;100301.13;12203899;19;20066;-79
2022/07/02 11:13:00;;;;;;;0.63;0.50;;;;;;;29.29;30.73;100295.53;12195869;19;20006;-82
2022/07/02 11:17:02;;;;;;;1.50;0.50;;;;;;;29.39;31.40;100291.31;12204322;19;20002;-84
2022/07/02 11:21:04;;;;;;;1.17;0.60;;;;;;;29.51;31.66;100286.41;12196736;19;19999;-84
2022/07/02 11:25:06;;;;;;;1.52;0.80;;;;;;;29.57;30.51;100281.28;12212064;19;20010;-84
2022/07/02 11:29:09;;;;;;;1.38;0.63;;;;;;;29.58;30.60;100287.75;12226588;19;20010;-84
2022/07/02 11:33:14;;;;;;;1.15;0.70;;;;;;;29.65;30.63;100279.44;12189904;19;20352;-82
2022/07/02 11:37:22;;;;;;;1.60;0.80;;;;;;;29.97;31.85;100269.69;12211042;19;20049;-85
2022/07/02 11:41:32;;;;;;;2.50;0.80;;;;;;;29.70;31.68;100271.47;12193500;19;20007;-82
2022/07/02 11:45:44;;;;;;;1.85;0.80;;;;;;;29.74;31.33;100260.19;12190859;19;20015;-82
2022/07/02 11:49:46;;;;;;;2.33;0.80;;;;;;;30.04;30.89;100254.81;12200078;19;20018;-83
2022/07/02 11:54:03;;;;;;;1.33;0.90;;;;;;;29.92;30.84;100255.75;12212250;19;20344;-85
2022/07/02 11:58:04;;;;;;;0.52;0.50;;;;;;;29.85;30.98;100249.09;12191917;19;20011;-85
2022/07/02 12:02:07;;;;;;;2.15;0.77;;;;;;;29.62;31.53;100246.09;12203058;19;20010;-85
2022/07/02 12:06:09;;;;;;;1.90;0.57;;;;;;;29.83;30.60;100243.78;12178451;19;20029;-83
2022/07/02 12:10:12;;;;;;;1.92;0.70;;;;;;;29.61;30.17;100239.56;12206118;19;20014;-82
2022/07/02 12:14:15;;;;;;;1.00;0.70;;;;;;;29.56;31.05;100241.88;12210794;19;20401;-84
2022/07/02 12:18:20;;;;;;;2.83;0.75;;;;;;;29.85;30.28;100227.19;12190634;19;20352;-85
2022/07/02 12:22:30;;;;;;;0.60;0.60;;;;;;;30.43;28.95;100215.09;12221447;19;20629;-80
2022/07/02 12:26:32;;;;;;;1.73;0.90;;;;;;;32.00;29.13;100209.34;12208190;19;20125;-85
2022/07/02 12:30:34;;;;;;;1.75;0.90;;;;;;;33.18;26.70;100206.28;12183204;19;20014;-83
2022/07/02 12:34:38;;;;;;;1.00;0.80;;;;;;;33.67;26.17;100211.59;12192954;19;20519;-85
2022/07/02 12:38:44;;;;;;;1.33;0.85;;;;;;;33.30;25.90;100198.22;12220284;19;20022;-85
2022/07/02 12:42:57;;;;;;;2.00;0.85;;;;;;;32.51;26.79;100199.44;12187756;19;20007;-83
2022/07/02 12:46:59;;;;;;;2.70;0.90;;;;;;;31.76;27.73;100193.50;12214682;19;19999;-83
2022/07/02 12:51:09;;;;;;;1.42;0.65;;;;;;;32.55;26.28;100188.09;12185957;19;20695;-87
2022/07/02 12:55:26;;;;;;;2.42;0.70;;;;;;;31.80;26.69;100182.19;12215485;19;20437;-84
2022/07/02 12:59:31;;;;;;;0.90;0.70;;;;;;;31.11;28.61;100165.19;12220940;19;20009;-82
2022/07/02 13:03:32;;;;;;;1.55;0.75;;;;;;;32.99;26.79;100165.34;12183707;19;20024;-84
2022/07/02 13:07:34;;;;;;;0.93;0.80;;;;;;;34.86;24.96;100159.47;12204063;19;20014;-82
2022/07/02 13:11:37;;;;;;;1.88;1.05;;;;;;;35.65;23.46;100150.88;12205399;19;20018;-83
2022/07/02 13:15:39;;;;;;;0.88;0.80;;;;;;;34.66;23.96;100161.88;12181030;19;20015;-82
2022/07/02 13:19:44;;;;;;;0.88;0.80;;;;;;;34.52;24.75;100146.69;12211683;19;20011;-83
2022/07/02 13:23:46;;;;;;;1.25;0.90;;;;;;;35.42;23.61;100144.75;12216188;19;20027;-85
2022/07/02 13:27:48;;;;;;;1.27;0.90;;;;;;;35.73;22.97;100132.44;12189620;19;20024;-85
2022/07/02 13:31:50;;;;;;;1.92;1.20;;;;;;;34.39;23.84;100141.34;12212754;19;20014;-84
2022/07/02 13:35:52;;;;;;;2.15;0.93;;;;;;;35.63;23.35;100133.28;12220676;19;20006;-83
2022/07/02 13:39:54;;;;;;;2.00;0.90;;;;;;;36.08;22.80;100139.28;12187761;19;20006;-84
2022/07/02 13:43:55;;;;;;;1.65;0.98;;;;;;;37.36;21.46;100125.34;12220963;19;20417;-84
2022/07/02 13:47:57;;;;;;;1.98;0.80;;;;;;;37.83;20.95;100119.94;12191469;19;20010;-84
2022/07/02 13:52:00;;;;;;;2.67;1.00;;;;;;;38.79;20.85;100112.09;12204970;19;20049;-86
2022/07/02 13:56:01;;;;;;;1.42;1.00;;;;;;;39.19;20.20;100106.50;12214184;19;20007;-84
2022/07/02 14:00:04;;;;;;;1.00;0.90;;;;;;;39.72;18.70;100098.13;12188998;19;20014;-85
2022/07/02 14:04:12;;;;;;;2.20;0.80;;;;;;;40.34;18.42;100096.41;12212340;19;20010;-86
2022/07/02 14:08:20;;;;;;;0.85;0.70;;;;;;;41.19;17.42;100087.75;12211479;19;20019;-83
2022/07/02 14:12:22;;;;;;;3.28;0.90;;;;;;;42.16;17.68;100078.44;12201535;19;20022;-83
2022/07/02 14:16:25;;;;;;;1.20;0.90;;;;;;;42.15;16.98;100068.13;12219877;19;20002;-85
2022/07/02 14:20:27;;;;;;;3.65;0.77;;;;;;;42.73;16.11;100062.97;12219177;19;20010;-85
2022/07/02 14:24:46;;;;;;;1.90;0.90;;;;;;;43.72;15.92;100059.91;12203231;19;20515;-84
2022/07/02 14:29:00;;;;;;;2.13;0.75;;;;;;;43.47;15.41;100067.44;12215435;19;20356;-83
2022/07/02 14:33:04;;;;;;;1.05;0.80;;;;;;;43.48;15.50;100059.53;12210369;19;20007;-80
2022/07/02 14:37:05;;;;;;;1.30;1.00;;;;;;;44.03;14.75;100039.66;12256227;19;20002;-84
2022/07/02 14:45:28;;;;;;;1.55;0.82;;;;;;;45.06;14.04;100039.56;12200330;19;20014;-79
2022/07/02 14:49:31;;;;;;;1.50;0.70;;;;;;;44.32;13.99;100024.78;12218281;19;20870;-84
2022/07/02 14:53:32;;;;;;;2.80;0.90;;;;;;;44.82;13.71;100015.31;12220422;19;20016;-83
2022/07/02 14:57:34;;;;;;;1.48;0.80;;;;;;;44.06;14.54;100005.97;12187430;19;20017;-85
2022/07/02 15:01:36;;;;;;;4.55;0.70;;;;;;;44.47;14.58;100016.31;12214720;19;20011;-83
2022/07/02 15:05:38;;;;;;;1.10;0.70;;;;;;;44.16;14.53;100010.53;12221370;19;20039;-83
2022/07/02 15:09:45;;;;;;;2.20;0.65;;;;;;;41.20;16.14;100013.38;12201675;19;20018;-81
2022/07/02 15:18:08;;;;;;;1.30;0.88;;;;;;;39.19;17.18;100012.19;12186276;19;20019;-81
2022/07/02 15:22:12;;;;;;;3.15;0.80;;;;;;;40.61;16.25;100006.69;12223037;19;20011;-84
2022/07/02 15:26:18;;;;;;;1.20;0.70;;;;;;;41.81;15.63;99983.53;12214988;19;20518;-82
2022/07/02 15:30:29;;;;;;;1.77;0.90;;;;;;;40.04;16.85;99991.50;12185193;19;20046;-81
2022/07/02 15:34:31;;;;;;;0.80;0.63;;;;;;;38.23;17.75;99979.28;12206432;19;20007;-83
2022/07/02 15:38:35;;;;;;;1.08;0.85;;;;;;;36.65;19.32;99988.94;12218844;19;20006;-82
2022/07/02 15:42:36;;;;;;;0.80;0.70;;;;;;;34.69;20.98;99977.09;12189749;19;20011;-84
2022/07/02 15:46:38;;;;;;;1.08;0.80;;;;;;;33.14;22.20;99980.69;12208942;19;20014;-81
2022/07/02 15:50:49;;;;;;;1.98;1.17;;;;;;;32.16;23.29;99995.38;12207752;19;20027;-86
2022/07/02 15:55:01;;;;;;;0.80;0.80;;;;;;;31.21;24.88;99979.53;12187222;19;20007;-83
2022/07/02 15:59:05;;;;;;;0.63;0.60;;;;;;;30.64;24.89;99979.47;12198481;19;20022;-86
2022/07/02 16:03:17;;;;;;;1.38;0.90;;;;;;;30.36;25.13;99971.28;12190384;19;20003;-82
2022/07/02 16:07:21;;;;;;;1.65;0.70;;;;;;;30.05;25.66;99963.81;12205913;19;20031;-84
2022/07/02 16:11:23;;;;;;;1.98;0.75;;;;;;;29.86;25.85;99961.00;12210968;19;20027;-85
2022/07/02 16:15:25;;;;;;;1.52;0.70;;;;;;;29.89;25.39;99946.03;12209491;19;20334;-84
2022/07/02 16:19:27;;;;;;;1.05;0.80;;;;;;;29.80;25.48;99948.28;12216028;19;20007;-83
2022/07/02 16:23:30;;;;;;;2.75;0.77;;;;;;;29.55;25.64;99947.78;12229263;19;20014;-83
2022/07/02 16:27:32;;;;;;;3.17;0.80;;;;;;;29.37;25.80;99938.91;12212453;19;20003;-84
2022/07/02 16:31:44;;;;;;;1.58;0.70;;;;;;;29.20;26.22;99940.16;12219035;19;20039;-83
2022/07/02 16:35:52;;;;;;;2.10;0.70;;;;;;;29.02;26.29;99934.91;12224646;19;20047;-84
2022/07/02 16:39:57;;;;;;;3.95;0.70;;;;;;;28.85;26.93;99935.31;12203045;19;20106;-85
2022/07/02 16:44:03;;;;;;;1.00;0.70;;;;;;;28.69;26.89;99935.34;12225128;19;20014;-82
2022/07/02 16:48:07;;;;;;;1.45;0.75;;;;;;;28.58;27.23;99937.94;12201115;19;20011;-82
2022/07/02 16:52:10;;;;;;;1.10;0.68;;;;;;;28.49;27.80;99928.78;12222714;19;20006;-83
2022/07/02 16:56:14;;;;;;;1.23;0.70;;;;;;;28.45;28.30;99927.91;12214606;19;20007;-84
2022/07/02 17:00:18;;;;;;;1.67;0.80;;;;;;;28.35;28.19;99923.59;12194612;19;20014;-84
2022/07/02 17:04:20;;;;;;;4.22;1.35;;;;;;;28.24;28.65;99916.00;12213558;19;20471;-81
2022/07/02 17:08:23;;;;;;;5.15;2.33;;;;;;;28.22;28.40;99912.72;12229470;19;20386;-83
2022/07/02 17:12:25;;;;;;;2.35;1.30;;;;;;;28.18;29.07;99916.28;12208964;19;20015;-82
2022/07/02 17:16:29;;;;;;;2.28;0.77;;;;;;;28.17;28.45;99916.66;12224629;19;20054;-84
2022/07/02 17:20:31;;;;;;;0.77;0.50;;;;;;;28.10;29.13;99920.13;12230453;19;20007;-82
2022/07/02 17:24:39;;;;;;;1.35;0.80;;;;;;;28.03;28.90;99919.13;12213969;19;20011;-83
2022/07/02 17:28:41;;;;;;;1.00;0.63;;;;;;;28.09;28.73;99917.66;12219956;19;20010;-84
2022/07/02 17:32:44;;;;;;;3.40;1.75;;;;;;;28.01;29.30;99916.66;12215429;19;20023;-83
2022/07/02 17:36:45;;;;;;;2.28;0.93;;;;;;;28.15;29.30;99905.69;12193542;19;20010;-84
2022/07/02 17:40:47;;;;;;;3.38;1.10;;;;;;;28.44;29.15;99914.94;12208629;19;20024;-83
2022/07/02 17:44:49;;;;;;;1.35;0.70;;;;;;;28.29;28.99;99912.88;12208118;19;20033;-84
2022/07/02 17:48:51;;;;;;;0.50;0.50;;;;;;;27.98;29.62;99897.56;12191350;19;20014;-83
2022/07/02 17:52:52;;;;;;;1.50;0.82;;;;;;;27.84;29.69;99903.69;12218173;19;20010;-83
2022/07/02 17:56:55;;;;;;;1.42;0.70;;;;;;;27.67;29.67;99895.50;12207299;19;20003;-84
2022/07/02 18:00:56;;;;;;;1.33;0.70;;;;;;;27.58;30.04;99901.31;12193790;19;20015;-83
2022/07/02 18:04:58;;;;;;;1.73;0.98;;;;;;;27.50;30.32;99899.47;12208881;19;20024;-83
2022/07/02 18:09:00;;;;;;;3.38;0.85;;;;;;;27.38;29.78;99903.19;12209399;19;20035;-81
2022/07/02 18:13:01;;;;;;;0.67;0.60;;;;;;;27.26;29.94;99895.56;12193297;19;20007;-83
2022/07/02 18:17:10;;;;;;;2.67;0.60;;;;;;;27.17;30.16;99896.91;12234036;19;20248;-82
2022/07/02 18:21:12;;;;;;;0.85;0.70;;;;;;;27.11;29.99;99893.50;12194229;19;20011;-82
2022/07/02 18:25:14;;;;;;;1.80;0.73;;;;;;;26.95;30.74;99899.09;12221342;19;20010;-84
2022/07/02 18:29:16;;;;;;;1.23;0.67;;;;;;;26.89;31.08;99897.69;12210395;19;20278;-84
2022/07/02 18:33:17;;;;;;;1.88;0.70;;;;;;;27.11;30.74;99887.84;12186112;19;20248;-82
2022/07/02 18:37:21;;;;;;;1.77;1.00;;;;;;;26.93;31.11;99883.66;12209742;19;20011;-83
2022/07/02 18:41:23;;;;;;;0.93;0.65;;;;;;;26.68;31.17;99891.38;12213812;19;20007;-83
2022/07/02 18:45:24;;;;;;;2.78;1.05;;;;;;;26.37;31.97;99893.63;12195338;19;20039;-81
2022/07/02 18:49:26;;;;;;;1.63;0.85;;;;;;;26.13;32.73;99883.16;12204322;19;20031;-80